WSSL/XSP METAR and TAF weather

Enter ICAO airport designator
Station Type Date Time Source
WSSL METAR 2019/02/17 15:00 UTC NOAA

WSSL 171500Z VRB01KT 9000 FEW018 BKN150 25/24 Q1013


Station Type Date Time Source
WSSL Decoded METAR 2019/02/17 15:00 UTC NOAA

Station name not available
Feb 17, 2019 - 10:00 AM EST / 2019.02.17 1500 UTC
Wind: Variable at 1 MPH (1 KT):0
Visibility: 5 mile(s):0
Sky conditions: mostly cloudy
Temperature: 77 F (25 C)
Dew Point: 75 F (24 C)
Relative Humidity: 94%
Pressure (altimeter): 29.91 in. Hg (1013 hPa)
ob: WSSL 171500Z VRB01KT 9000 FEW018 BKN150 25/24 Q1013
cycle: 15

Station Type Date Time Source
WSSL TAF 2019/02/17 12:09 UTC NOAA

TAF WSSL 171100Z 1712/1818 02008KT 9999 SCT020
TEMPO 1806/1809 3000 TSRA FEW012CB BKN015


Example: see airport list